createdAt,value
2018-11-23T00:04:13.105Z,83.69
2018-11-23T00:09:15.510Z,84.15
2018-11-23T00:14:18.021Z,84.35
2018-11-23T00:19:20.430Z,84.57
2018-11-23T00:24:23.186Z,84.24
2018-11-23T00:29:25.568Z,84.41
2018-11-23T00:34:28.067Z,84.64
2018-11-23T00:39:30.444Z,84.53
2018-11-23T00:44:33.000Z,85.55
2018-11-23T00:49:35.515Z,85.33
2018-11-23T00:54:37.908Z,85.02
2018-11-23T00:59:40.305Z,85.06
2018-11-23T01:04:42.785Z,85.24
2018-11-23T01:09:45.148Z,85.21
2018-11-23T01:14:47.612Z,84.66
2018-11-23T01:19:50.055Z,84.59
2018-11-23T01:24:52.535Z,84.96
2018-11-23T01:29:54.992Z,84.45
2018-11-23T01:34:57.370Z,84.75
2018-11-23T01:40:00.064Z,85.09
2018-11-23T01:45:02.496Z,85.40
2018-11-23T01:50:09.564Z,85.33
2018-11-23T01:55:12.831Z,85.25
2018-11-23T02:00:23.350Z,85.20
2018-11-23T02:05:25.748Z,85.48
2018-11-23T02:10:28.259Z,85.38
2018-11-23T02:15:30.573Z,85.60
2018-11-23T02:20:33.555Z,85.21
2018-11-23T02:25:36.030Z,85.34
2018-11-23T02:30:38.513Z,85.43
2018-11-23T02:35:40.935Z,85.71
2018-11-23T02:40:43.854Z,85.41
2018-11-23T02:45:46.330Z,85.67
2018-11-23T02:50:48.747Z,86.19
2018-11-23T02:55:51.307Z,85.85
2018-11-23T03:00:53.880Z,86.16
2018-11-23T03:05:56.300Z,85.60
2018-11-23T03:10:58.842Z,85.76
2018-11-23T03:16:01.228Z,85.86
2018-11-23T03:21:03.763Z,85.75
2018-11-23T03:26:07.558Z,85.71
2018-11-23T03:36:25.899Z,86.15
2018-11-23T03:41:28.446Z,86.56
2018-11-23T03:46:31.744Z,86.39
2018-11-23T03:51:34.261Z,86.29
2018-11-23T03:56:37.507Z,86.29
2018-11-23T04:01:39.999Z,85.89
2018-11-23T04:06:42.558Z,86.39
2018-11-23T04:11:45.117Z,86.42
2018-11-23T04:16:47.478Z,86.27
2018-11-23T04:21:50.359Z,86.29
2018-11-23T04:26:52.952Z,85.92
2018-11-23T04:32:03.314Z,86.18
2018-11-23T04:37:05.817Z,86.73
2018-11-23T04:47:21.627Z,86.95
2018-11-23T04:52:24.398Z,87.18
2018-11-23T04:57:27.201Z,86.56
2018-11-23T05:02:29.908Z,86.83
2018-11-23T05:07:32.615Z,87.11
2018-11-23T05:12:35.214Z,86.93
2018-11-23T05:17:37.674Z,87.23
2018-11-23T05:22:41.365Z,87.36
2018-11-23T05:27:43.759Z,87.18
2018-11-23T05:32:46.265Z,87.73
2018-11-23T05:37:48.673Z,87.68
2018-11-23T05:42:52.470Z,87.10
2018-11-23T05:47:54.932Z,87.72
2018-11-23T05:52:57.422Z,87.48
2018-11-23T05:58:00.313Z,87.47
2018-11-23T06:03:02.802Z,87.55
2018-11-23T06:08:05.368Z,87.50
2018-11-23T06:13:07.922Z,87.27
2018-11-23T06:18:10.638Z,87.12
2018-11-23T06:23:13.115Z,87.37
2018-11-23T06:28:15.550Z,87.44
2018-11-23T06:33:35.871Z,88.07
2018-11-23T06:38:38.404Z,87.75
2018-11-23T06:43:41.674Z,87.78
2018-11-23T06:48:44.104Z,87.45
2018-11-23T06:53:46.661Z,87.57
2018-11-23T06:58:50.061Z,87.44
2018-11-23T07:03:52.732Z,87.21
2018-11-23T07:08:55.209Z,86.84
2018-11-23T07:14:03.763Z,87.29
2018-11-23T07:19:00.179Z,86.50
2018-11-23T07:24:02.701Z,87.31
2018-11-23T07:29:06.774Z,86.93
2018-11-23T07:34:09.217Z,86.96
2018-11-23T07:39:23.097Z,86.33
2018-11-23T07:44:25.476Z,86.32
2018-11-23T07:49:27.874Z,86.49
2018-11-23T07:54:30.253Z,85.65
2018-11-23T07:59:32.721Z,85.93
2018-11-23T08:04:35.808Z,84.71
2018-11-23T08:09:38.849Z,85.36
2018-11-23T08:14:41.452Z,84.55
2018-11-23T08:19:47.416Z,85.28
2018-11-23T08:24:46.463Z,84.74
2018-11-23T08:29:48.809Z,84.00
2018-11-23T08:34:51.381Z,83.72
2018-11-23T08:39:53.841Z,84.28
2018-11-23T08:44:56.280Z,83.62
2018-11-23T08:49:58.705Z,83.95
2018-11-23T08:55:01.208Z,83.57
2018-11-23T09:00:06.275Z,83.90
2018-11-23T09:05:08.816Z,83.55
2018-11-23T09:10:14.425Z,83.40
2018-11-23T09:15:17.568Z,83.32
2018-11-23T09:20:19.604Z,82.76
2018-11-23T09:25:22.921Z,82.51
2018-11-23T09:30:26.143Z,82.27
2018-11-23T09:35:28.871Z,82.18
2018-11-23T09:40:31.331Z,82.35
2018-11-23T09:45:34.288Z,81.72
2018-11-23T09:50:36.795Z,80.89
2018-11-23T09:55:39.251Z,81.15
2018-11-23T10:00:41.713Z,81.45
2018-11-23T10:05:44.145Z,81.30
2018-11-23T10:10:46.529Z,81.24
2018-11-23T10:15:49.384Z,80.26
2018-11-23T10:20:51.876Z,80.20
2018-11-23T10:25:54.453Z,79.99
2018-11-23T10:30:56.902Z,80.09
2018-11-23T10:35:59.523Z,79.85
2018-11-23T10:41:02.111Z,79.92
2018-11-23T10:46:04.599Z,79.60
2018-11-23T10:51:07.059Z,79.41
2018-11-23T10:56:09.470Z,79.12
2018-11-23T11:01:17.671Z,78.66
2018-11-23T11:06:25.625Z,77.78
2018-11-23T11:11:28.199Z,77.46
2018-11-23T11:16:31.079Z,77.30
2018-11-23T11:21:33.969Z,77.37
2018-11-23T11:26:36.402Z,77.09
2018-11-23T11:31:38.858Z,76.96
2018-11-23T11:36:41.249Z,76.23
2018-11-23T11:41:43.639Z,75.97
2018-11-23T11:46:46.054Z,74.17
2018-11-23T11:51:48.670Z,74.36
2018-11-23T11:56:51.356Z,74.71
2018-11-23T12:01:53.829Z,74.65
2018-11-23T12:06:56.888Z,75.11
2018-11-23T12:11:59.433Z,74.72
2018-11-23T12:17:02.005Z,74.27
2018-11-23T12:22:04.712Z,74.45
2018-11-23T12:27:07.043Z,73.47
2018-11-23T12:32:09.483Z,73.97
2018-11-23T12:37:11.875Z,74.00
2018-11-23T12:42:14.388Z,74.32
2018-11-23T12:47:16.784Z,73.85
2018-11-23T12:52:19.144Z,73.56
2018-11-23T12:57:22.574Z,73.57
2018-11-23T13:02:25.238Z,73.55
2018-11-23T13:07:27.753Z,73.59
2018-11-23T13:12:30.201Z,73.88
2018-11-23T13:17:32.659Z,74.04
2018-11-23T13:22:35.480Z,73.55
2018-11-23T13:27:38.457Z,73.87
2018-11-23T13:32:41.781Z,73.68
2018-11-23T13:37:44.484Z,73.58
2018-11-23T13:42:47.386Z,73.78
2018-11-23T13:47:49.875Z,73.23
2018-11-23T13:52:54.073Z,73.16
2018-11-23T13:57:56.572Z,73.47
2018-11-23T14:02:59.089Z,73.28
2018-11-23T14:08:02.783Z,73.48
2018-11-23T14:13:11.332Z,73.92
2018-11-23T14:18:07.802Z,74.01
2018-11-23T14:23:10.271Z,73.99
2018-11-23T14:28:12.757Z,74.90
2018-11-23T14:33:15.251Z,75.58
2018-11-23T14:38:17.639Z,76.36
2018-11-23T14:43:20.091Z,76.21
2018-11-23T14:48:22.474Z,76.51
2018-11-23T14:53:24.933Z,77.56
2018-11-23T14:58:27.378Z,77.36
2018-11-23T15:03:29.816Z,77.95
2018-11-23T15:08:32.222Z,78.60
2018-11-23T15:13:34.768Z,78.99
2018-11-23T15:18:37.211Z,79.39
2018-11-23T15:23:39.719Z,79.87
2018-11-23T15:28:42.573Z,80.31
2018-11-23T15:33:45.092Z,80.68
2018-11-23T15:38:47.528Z,81.08
2018-11-23T15:43:50.333Z,81.79
2018-11-23T15:48:52.753Z,82.19
2018-11-23T15:53:55.730Z,82.28
2018-11-23T15:59:04.428Z,82.87
2018-11-23T16:04:07.014Z,83.65
2018-11-23T16:09:11.616Z,83.00
2018-11-23T16:14:14.086Z,83.01
2018-11-23T16:19:16.999Z,82.95
2018-11-23T16:24:19.565Z,82.98
2018-11-23T16:29:22.149Z,82.94
2018-11-23T16:34:24.659Z,83.66
2018-11-23T16:39:27.120Z,83.25
2018-11-23T16:44:29.489Z,83.44
2018-11-23T16:49:31.903Z,83.85
2018-11-23T16:54:35.777Z,83.73
2018-11-23T16:59:38.549Z,83.68
2018-11-23T17:04:40.905Z,84.00
2018-11-23T17:09:44.179Z,84.15
2018-11-23T17:14:45.764Z,84.42
2018-11-23T17:19:48.151Z,83.85
2018-11-23T17:24:50.739Z,83.50
2018-11-23T17:29:53.742Z,84.44
2018-11-23T17:34:56.454Z,84.25
2018-11-23T17:39:58.938Z,84.81
2018-11-23T17:45:01.451Z,84.37
2018-11-23T17:50:05.728Z,84.14
2018-11-23T17:55:10.043Z,84.08
2018-11-23T18:00:18.697Z,84.61
2018-11-23T18:05:21.980Z,84.28
2018-11-23T18:10:26.750Z,84.65
2018-11-23T18:15:30.436Z,84.84
2018-11-23T18:20:34.809Z,84.85
2018-11-23T18:25:38.916Z,84.50
2018-11-23T18:30:41.393Z,84.68
2018-11-23T18:35:43.882Z,84.48
2018-11-23T18:40:46.342Z,84.68
2018-11-23T18:45:48.781Z,85.35
2018-11-23T18:50:51.441Z,85.25
2018-11-23T18:55:54.485Z,85.41
2018-11-23T19:00:56.975Z,85.16
2018-11-23T19:05:59.758Z,85.26
2018-11-23T19:11:02.306Z,85.50
2018-11-23T19:16:04.965Z,85.26
2018-11-23T19:21:07.516Z,84.92
2018-11-23T19:26:10.205Z,84.82
2018-11-23T19:31:12.839Z,84.86
2018-11-23T19:36:15.739Z,84.65
2018-11-23T19:41:18.246Z,84.71
2018-11-23T19:46:20.686Z,84.61
2018-11-23T19:51:24.728Z,84.62
2018-11-23T19:56:27.139Z,84.84
2018-11-23T20:01:29.625Z,84.92
2018-11-23T20:06:32.076Z,84.98
2018-11-23T20:11:34.678Z,84.86
2018-11-23T20:16:37.072Z,84.93
2018-11-23T20:21:39.536Z,84.48
2018-11-23T20:26:42.004Z,84.03
2018-11-23T20:31:44.449Z,84.95
2018-11-23T20:36:46.912Z,84.73
2018-11-23T20:41:49.459Z,84.80
2018-11-23T20:46:52.010Z,84.43
2018-11-23T20:51:54.445Z,84.90
2018-11-23T20:56:56.929Z,84.35
2018-11-23T21:01:59.379Z,84.55
2018-11-23T21:07:01.940Z,84.76
2018-11-23T21:12:04.692Z,84.45
2018-11-23T21:17:07.466Z,84.34
2018-11-23T21:22:09.985Z,84.20
2018-11-23T21:27:12.485Z,84.36
2018-11-23T21:32:15.234Z,84.71
2018-11-23T21:37:17.630Z,84.85
2018-11-23T21:42:20.122Z,84.99
2018-11-23T21:47:22.629Z,84.47
2018-11-23T21:52:25.225Z,84.76
2018-11-23T21:57:27.660Z,84.50
2018-11-23T22:02:30.162Z,84.67
2018-11-23T22:07:32.633Z,84.89
2018-11-23T22:12:35.238Z,84.89
2018-11-23T22:17:37.898Z,84.77
2018-11-23T22:22:40.421Z,84.55
2018-11-23T22:27:43.234Z,84.62
2018-11-23T22:32:45.685Z,85.17
2018-11-23T22:37:48.173Z,85.09
2018-11-23T22:42:52.645Z,85.06
2018-11-23T22:47:56.448Z,85.11
2018-11-23T22:52:58.902Z,85.73
2018-11-23T22:58:01.314Z,85.67
2018-11-23T23:03:05.493Z,86.10
2018-11-23T23:08:09.028Z,86.82
2018-11-23T23:13:13.601Z,86.58
2018-11-23T23:18:16.600Z,86.74
2018-11-23T23:23:21.215Z,86.84
2018-11-23T23:28:25.557Z,86.90
2018-11-23T23:33:30.021Z,87.07
2018-11-23T23:38:34.162Z,87.17
2018-11-23T23:43:37.697Z,86.80
2018-11-23T23:48:42.392Z,87.04
2018-11-23T23:53:45.013Z,86.91
2018-11-23T23:58:47.457Z,86.57
